JA06BK RJTI-RJTI

Flight info

Callsign JA06BK
Flight time 0h 4m
Altitude 0000
Route N0110/VFR DCT
Aircraft EC35/L-SDLOV/LB1

Departure

Time 2026-05-06 16:12
Airport Tokyo Heliport (RJTI)

Arrival

Time 2026-05-06 16:17
Airport Tokyo Heliport (RJTI)
Time Latitude Longitude Altitude Speed Heading
2026-05-06 16:08 35.63659 139.83867 23 ft 0 kts 278°
2026-05-06 16:10 35.63654 139.83843 28 ft 3 kts 195°
2026-05-06 16:10 35.63638 139.83849 27 ft 3 kts 101°
2026-05-06 16:11 35.63635 139.83872 29 ft 1 kts 102°
2026-05-06 16:11 35.63633 139.83896 28 ft 9 kts 104°
2026-05-06 16:11 35.63582 139.83947 68 ft 26 kts 186°
2026-05-06 16:11 35.63292 139.83689 258 ft 80 kts 246°
2026-05-06 16:12 35.63281 139.82894 407 ft 102 kts 273°
2026-05-06 16:12 35.63337 139.81971 504 ft 115 kts 276°
2026-05-06 16:12 35.63586 139.81018 582 ft 121 kts 291°
2026-05-06 16:12 35.63962 139.80126 729 ft 111 kts 284°
2026-05-06 16:13 35.63683 139.79391 550 ft 96 kts 227°
2026-05-06 16:13 35.63829 139.78996 517 ft 65 kts 329°
2026-05-06 16:13 35.64258 139.78685 410 ft 71 kts 325°
2026-05-06 16:13 35.64736 139.78628 449 ft 80 kts 20°
2026-05-06 16:14 35.65327 139.78899 469 ft 102 kts 18°
2026-05-06 16:14 35.66044 139.78978 626 ft 106 kts 358°
2026-05-06 16:14 35.66783 139.78859 772 ft 106 kts 350°
2026-05-06 16:14 35.67533 139.78752 831 ft 114 kts 354°
2026-05-06 16:15 35.68307 139.78915 906 ft 113 kts 34°
2026-05-06 16:15 35.68538 139.79743 1018 ft 114 kts 106°
2026-05-06 16:15 35.68124 139.80542 1132 ft 113 kts 133°
2026-05-06 16:15 35.67521 139.81225 1016 ft 121 kts 137°
2026-05-06 16:16 35.66903 139.81927 881 ft 119 kts 135°
2026-05-06 16:16 35.66292 139.82566 773 ft 113 kts 141°
2026-05-06 16:16 35.65690 139.83140 646 ft 105 kts 140°
2026-05-06 16:16 35.65158 139.83681 524 ft 95 kts 142°
2026-05-06 16:17 35.64625 139.84002 330 ft 80 kts 177°
2026-05-06 16:17 35.64154 139.83986 229 ft 56 kts 184°
2026-05-06 16:17 35.63804 139.83959 133 ft 43 kts 186°
2026-05-06 16:17 35.63612 139.83951 34 ft 12 kts 191°
2026-05-06 16:18 35.63560 139.83921 28 ft 9 kts 270°
2026-05-06 16:18 35.63559 139.83849 31 ft 6 kts 286°
2026-05-06 16:18 35.63598 139.83834 28 ft 8 kts
2026-05-06 16:18 35.63654 139.83839 27 ft 7 kts
2026-05-06 16:19 35.63691 139.83830 27 ft 3 kts 339°
2026-05-06 16:19 35.63707 139.83821 25 ft 0 kts 359°
2026-05-06 16:19 35.63710 139.83820 24 ft 0 kts
2026-05-06 16:21 35.63714 139.83819 26 ft 1 kts 100°
2026-05-06 16:21 35.63677 139.83840 28 ft 9 kts 185°
2026-05-06 16:21 35.63634 139.83877 29 ft 11 kts 94°
2026-05-06 16:22 35.63542 139.83948 84 ft 47 kts 192°
2026-05-06 16:22 35.63249 139.83533 255 ft 94 kts 262°
2026-05-06 16:22 35.63269 139.82646 404 ft 111 kts 273°
2026-05-06 16:22 35.63422 139.81684 531 ft 118 kts 288°
2026-05-06 16:23 35.63714 139.80741 574 ft 120 kts 290°
2026-05-06 16:23 35.63941 139.79756 603 ft 119 kts 284°
2026-05-06 16:23 35.64311 139.78908 683 ft 113 kts 313°
2026-05-06 16:23 35.65068 139.78672 935 ft 111 kts 359°
2026-05-06 16:24 35.65847 139.78684 1173 ft 113 kts
2026-05-06 16:24 35.66643 139.78717 1422 ft 115 kts
2026-05-06 16:24 35.67475 139.78772 1479 ft 123 kts
2026-05-06 16:24 35.68340 139.78815 1467 ft 125 kts 359°
2026-05-06 16:25 35.69209 139.78820 1493 ft 124 kts 358°
2026-05-06 16:25 35.70001 139.79144 1550 ft 122 kts 29°
2026-05-06 16:25 35.70729 139.79693 1567 ft 124 kts 31°
2026-05-06 16:25 35.71466 139.80247 1559 ft 124 kts 30°
2026-05-06 16:26 35.72150 139.80912 1509 ft 128 kts 53°
2026-05-06 16:26 35.72350 139.81901 1650 ft 118 kts 96°
2026-05-06 16:26 35.72129 139.82916 1584 ft 127 kts 111°
2026-05-06 16:26 35.71754 139.83902 1501 ft 129 kts 120°
2026-05-06 16:27 35.71215 139.84758 1359 ft 124 kts 134°
2026-05-06 16:27 35.70540 139.85412 1115 ft 123 kts 148°
2026-05-06 16:27 35.69749 139.85709 947 ft 119 kts 176°
2026-05-06 16:27 35.68981 139.85520 857 ft 111 kts 202°
2026-05-06 16:28 35.68283 139.85127 782 ft 110 kts 206°
2026-05-06 16:28 35.67585 139.84804 755 ft 105 kts 195°
2026-05-06 16:28 35.66881 139.84663 751 ft 102 kts 187°
2026-05-06 16:28 35.66168 139.84553 697 ft 104 kts 192°
2026-05-06 16:29 35.65489 139.84253 604 ft 101 kts 202°
2026-05-06 16:29 35.64854 139.84040 477 ft 89 kts 186°
2026-05-06 16:29 35.64286 139.83999 330 ft 77 kts 181°
2026-05-06 16:29 35.63809 139.83963 165 ft 56 kts 185°
2026-05-06 16:30 35.63603 139.83952 40 ft 7 kts 202°
2026-05-06 16:30 35.63568 139.83938 28 ft 8 kts 241°
2026-05-06 16:30 35.63557 139.83870 27 ft 6 kts 280°
2026-05-06 16:30 35.63576 139.83832 27 ft 7 kts 11°
2026-05-06 16:31 35.63636 139.83838 27 ft 11 kts
2026-05-06 16:31 35.63691 139.83835 28 ft 6 kts 320°
2026-05-06 16:31 35.63709 139.83820 26 ft 1 kts
2026-05-06 16:31 35.63709 139.83819 24 ft 0 kts
2026-05-06 16:34 35.63711 139.83819 26 ft 1 kts 72°
2026-05-06 16:34 35.63680 139.83840 29 ft 9 kts 186°
2026-05-06 16:34 35.63636 139.83865 31 ft 9 kts 96°
2026-05-06 16:35 35.63542 139.83955 77 ft 45 kts 189°
2026-05-06 16:35 35.63290 139.83583 304 ft 80 kts 258°
2026-05-06 16:35 35.63222 139.82811 407 ft 102 kts 269°
2026-05-06 16:35 35.63341 139.81909 490 ft 112 kts 286°
2026-05-06 16:36 35.63669 139.81018 556 ft 117 kts 295°
2026-05-06 16:36 35.63992 139.80058 528 ft 124 kts 285°
2026-05-06 16:36 35.64371 139.79116 528 ft 126 kts 313°
2026-05-06 16:36 35.65130 139.78765 722 ft 115 kts
2026-05-06 16:37 35.65927 139.78881 858 ft 120 kts
2026-05-06 16:37 35.66774 139.78885 1006 ft 124 kts 358°
2026-05-06 16:37 35.67622 139.78691 1152 ft 125 kts 347°
2026-05-06 16:37 35.68440 139.78348 1341 ft 121 kts 343°
2026-05-06 16:38 35.69250 139.78158 1450 ft 117 kts 355°
2026-05-06 16:38 35.70051 139.78182 1552 ft 115 kts
2026-05-06 16:38 35.70789 139.78527 1785 ft 107 kts 24°
2026-05-06 16:38 35.71398 139.78998 2088 ft 101 kts 34°
2026-05-06 16:39 35.71854 139.79681 2230 ft 111 kts 60°
2026-05-06 16:39 35.71990 139.80636 2350 ft 117 kts 90°
2026-05-06 16:39 35.71737 139.81592 2457 ft 120 kts 118°
2026-05-06 16:39 35.71147 139.82310 2561 ft 121 kts 145°
2026-05-06 16:40 35.70345 139.82536 2623 ft 122 kts 188°
2026-05-06 16:40 35.69693 139.81937 2638 ft 118 kts 241°
2026-05-06 16:40 35.69774 139.81074 2855 ft 104 kts 306°
2026-05-06 16:40 35.70409 139.80595 2886 ft 111 kts 334°
2026-05-06 16:41 35.71161 139.80380 3022 ft 112 kts 354°
2026-05-06 16:41 35.71855 139.80715 3145 ft 112 kts 39°
2026-05-06 16:41 35.72147 139.81574 3289 ft 112 kts 86°
2026-05-06 16:41 35.71836 139.82435 3341 ft 113 kts 134°
2026-05-06 16:42 35.71147 139.82683 3365 ft 105 kts 190°
2026-05-06 16:42 35.70421 139.82380 3186 ft 115 kts 203°
2026-05-06 16:42 35.69872 139.81723 3121 ft 109 kts 242°
2026-05-06 16:42 35.69774 139.80819 3017 ft 107 kts 279°
2026-05-06 16:43 35.70180 139.80114 2963 ft 102 kts 325°
2026-05-06 16:43 35.70838 139.79891 2996 ft 90 kts
2026-05-06 16:43 35.71366 139.80133 3059 ft 83 kts 38°
2026-05-06 16:43 35.71658 139.80735 3064 ft 84 kts 78°
2026-05-06 16:44 35.71605 139.81446 3065 ft 85 kts 111°
2026-05-06 16:44 35.71262 139.82039 3064 ft 86 kts 141°
2026-05-06 16:44 35.70727 139.82343 3064 ft 86 kts 171°
2026-05-06 16:44 35.70142 139.82281 3064 ft 85 kts 201°
2026-05-06 16:45 35.69669 139.81868 3061 ft 83 kts 233°
2026-05-06 16:45 35.69537 139.81206 3073 ft 81 kts 278°
2026-05-06 16:45 35.69802 139.80592 3048 ft 85 kts 310°
2026-05-06 16:45 35.70249 139.80115 3032 ft 88 kts 320°
2026-05-06 16:46 35.70732 139.79654 3032 ft 88 kts 325°
2026-05-06 16:46 35.71315 139.79560 3011 ft 87 kts 21°
2026-05-06 16:46 35.71737 139.80070 3044 ft 84 kts 56°
2026-05-06 16:46 35.71946 139.80754 3036 ft 88 kts 77°
2026-05-06 16:47 35.71978 139.81521 3014 ft 91 kts 96°
2026-05-06 16:47 35.71756 139.82241 3010 ft 91 kts 126°
2026-05-06 16:47 35.71240 139.82602 2999 ft 88 kts 176°
2026-05-06 16:47 35.70673 139.82395 3006 ft 85 kts 214°
2026-05-06 16:48 35.70288 139.81870 3033 ft 83 kts 243°
2026-05-06 16:48 35.70168 139.81193 3039 ft 81 kts 272°
2026-05-06 16:48 35.70339 139.80539 3068 ft 81 kts 302°
2026-05-06 16:48 35.70755 139.80080 3100 ft 81 kts 332°
2026-05-06 16:49 35.71305 139.79938 3123 ft 82 kts
2026-05-06 16:49 35.71842 139.80155 3143 ft 83 kts 32°
2026-05-06 16:49 35.72183 139.80719 3116 ft 89 kts 75°
2026-05-06 16:49 35.72098 139.81488 3028 ft 96 kts 114°
2026-05-06 16:50 35.71706 139.82167 2960 ft 99 kts 136°
2026-05-06 16:50 35.71124 139.82585 2921 ft 96 kts 166°
2026-05-06 16:50 35.70488 139.82514 2912 ft 91 kts 206°
2026-05-06 16:50 35.70222 139.82199 3003 ft 78 kts 239°
2026-05-06 16:51 35.70082 139.81324 3006 ft 78 kts 267°
2026-05-06 16:51 35.70120 139.80707 3103 ft 70 kts 289°
2026-05-06 16:51 35.70441 139.80241 3129 ft 78 kts 319°
2026-05-06 16:51 35.70923 139.79866 3083 ft 88 kts 332°
2026-05-06 16:52 35.71531 139.79680 3016 ft 94 kts
2026-05-06 16:52 35.71983 139.80189 3004 ft 91 kts 69°
2026-05-06 16:52 35.72069 139.80939 3018 ft 90 kts 84°
2026-05-06 16:52 35.71917 139.81696 2930 ft 97 kts 128°
2026-05-06 16:53 35.71405 139.82075 3038 ft 80 kts 169°
2026-05-06 16:53 35.70890 139.81991 3114 ft 74 kts 206°
2026-05-06 16:53 35.70501 139.81594 3150 ft 73 kts 237°
2026-05-06 16:53 35.70334 139.80989 3106 ft 84 kts 265°
2026-05-06 16:54 35.70434 139.80225 2980 ft 97 kts 290°
2026-05-06 16:54 35.70842 139.79572 2922 ft 93 kts 336°
2026-05-06 16:54 35.71391 139.79744 3035 ft 77 kts 39°
2026-05-06 16:54 35.71806 139.80196 3029 ft 85 kts 39°
2026-05-06 16:55 35.72238 139.80753 2944 ft 97 kts 52°
2026-05-06 16:55 35.72373 139.81605 2777 ft 108 kts 92°
2026-05-06 16:55 35.72155 139.82501 2607 ft 112 kts 114°
2026-05-06 16:55 35.71812 139.83349 2189 ft 112 kts 115°
2026-05-06 16:56 35.71512 139.84154 1586 ft 97 kts 113°
2026-05-06 16:56 35.71162 139.84872 1257 ft 104 kts 137°
2026-05-06 16:56 35.70542 139.85379 1154 ft 113 kts 159°
2026-05-06 16:56 35.69756 139.85578 1015 ft 117 kts 183°
2026-05-06 16:57 35.68995 139.85410 948 ft 107 kts 201°
2026-05-06 16:57 35.68339 139.85050 915 ft 100 kts 206°
2026-05-06 16:57 35.67686 139.84779 862 ft 98 kts 194°
2026-05-06 16:57 35.67027 139.84657 817 ft 97 kts 186°
2026-05-06 16:58 35.66343 139.84577 733 ft 99 kts 186°
2026-05-06 16:58 35.65671 139.84359 584 ft 99 kts 200°
2026-05-06 16:58 35.65069 139.84098 494 ft 86 kts 193°
2026-05-06 16:58 35.64513 139.84004 406 ft 74 kts 181°
2026-05-06 16:59 35.64043 139.83981 283 ft 62 kts 185°
2026-05-06 16:59 35.63679 139.83952 94 ft 34 kts 182°
2026-05-06 16:59 35.63572 139.83948 31 ft 6 kts 231°
2026-05-06 16:59 35.63557 139.83888 29 ft 6 kts 279°
2026-05-06 17:00 35.63558 139.83848 28 ft 5 kts 292°
2026-05-06 17:00 35.63596 139.83830 30 ft 8 kts 311°
2026-05-06 17:00 35.63613 139.83807 28 ft 2 kts
2026-05-06 17:00 35.63613 139.83806 26 ft 0 kts